sensor_id;sensor_type;location;lat;lon;timestamp;temperature;humidity
3942;DHT22;1985;48.592;8.850;2023-10-08T00:01:08;14.40;92.10
3942;DHT22;1985;48.592;8.850;2023-10-08T00:03:37;14.40;92.30
3942;DHT22;1985;48.592;8.850;2023-10-08T00:06:03;14.50;92.20
3942;DHT22;1985;48.592;8.850;2023-10-08T00:08:35;14.40;92.70
3942;DHT22;1985;48.592;8.850;2023-10-08T00:11:01;14.40;93.80
3942;DHT22;1985;48.592;8.850;2023-10-08T00:13:35;14.50;92.60
3942;DHT22;1985;48.592;8.850;2023-10-08T00:16:12;14.40;93.40
3942;DHT22;1985;48.592;8.850;2023-10-08T00:18:41;14.50;91.40
3942;DHT22;1985;48.592;8.850;2023-10-08T00:21:21;14.50;91.70
3942;DHT22;1985;48.592;8.850;2023-10-08T00:23:58;14.60;90.60
3942;DHT22;1985;48.592;8.850;2023-10-08T00:26:24;14.40;89.50
3942;DHT22;1985;48.592;8.850;2023-10-08T00:28:56;14.40;89.90
3942;DHT22;1985;48.592;8.850;2023-10-08T00:31:22;14.30;90.40
3942;DHT22;1985;48.592;8.850;2023-10-08T00:33:52;14.20;90.60
3942;DHT22;1985;48.592;8.850;2023-10-08T00:36:18;13.90;91.40
3942;DHT22;1985;48.592;8.850;2023-10-08T00:38:47;13.70;91.80
3942;DHT22;1985;48.592;8.850;2023-10-08T00:41:33;13.60;91.40
3942;DHT22;1985;48.592;8.850;2023-10-08T00:43:59;13.60;91.80
3942;DHT22;1985;48.592;8.850;2023-10-08T00:46:26;13.70;93.50
3942;DHT22;1985;48.592;8.850;2023-10-08T00:49:02;13.80;92.00
3942;DHT22;1985;48.592;8.850;2023-10-08T00:52:03;13.90;91.70
3942;DHT22;1985;48.592;8.850;2023-10-08T00:54:49;14.00;91.10
3942;DHT22;1985;48.592;8.850;2023-10-08T00:57:30;14.00;91.60
3942;DHT22;1985;48.592;8.850;2023-10-08T01:00:00;13.90;92.10
3942;DHT22;1985;48.592;8.850;2023-10-08T01:02:27;13.90;93.10
3942;DHT22;1985;48.592;8.850;2023-10-08T01:04:57;13.90;94.20
3942;DHT22;1985;48.592;8.850;2023-10-08T01:07:24;14.00;93.40
3942;DHT22;1985;48.592;8.850;2023-10-08T01:09:50;14.00;93.20
3942;DHT22;1985;48.592;8.850;2023-10-08T01:12:22;14.00;93.80
3942;DHT22;1985;48.592;8.850;2023-10-08T01:14:55;13.90;94.70
3942;DHT22;1985;48.592;8.850;2023-10-08T01:17:24;14.00;93.10
3942;DHT22;1985;48.592;8.850;2023-10-08T01:19:51;14.00;93.20
3942;DHT22;1985;48.592;8.850;2023-10-08T01:22:22;14.10;91.00
3942;DHT22;1985;48.592;8.850;2023-10-08T01:24:48;14.20;92.40
3942;DHT22;1985;48.592;8.850;2023-10-08T01:27:18;14.20;92.80
3942;DHT22;1985;48.592;8.850;2023-10-08T01:29:49;14.10;92.80
3942;DHT22;1985;48.592;8.850;2023-10-08T01:32:19;14.20;90.70
3942;DHT22;1985;48.592;8.850;2023-10-08T01:34:45;14.10;91.70
3942;DHT22;1985;48.592;8.850;2023-10-08T01:37:15;14.10;90.90
3942;DHT22;1985;48.592;8.850;2023-10-08T01:39:45;14.10;90.40
3942;DHT22;1985;48.592;8.850;2023-10-08T01:42:14;14.10;90.00
3942;DHT22;1985;48.592;8.850;2023-10-08T01:44:48;14.00;90.20
3942;DHT22;1985;48.592;8.850;2023-10-08T01:47:15;14.00;91.10
3942;DHT22;1985;48.592;8.850;2023-10-08T01:49:42;14.00;90.80
3942;DHT22;1985;48.592;8.850;2023-10-08T01:52:10;14.00;90.40
3942;DHT22;1985;48.592;8.850;2023-10-08T01:54:43;13.90;90.30
3942;DHT22;1985;48.592;8.850;2023-10-08T01:57:09;13.80;90.40
3942;DHT22;1985;48.592;8.850;2023-10-08T01:59:36;13.70;90.50
3942;DHT22;1985;48.592;8.850;2023-10-08T02:02:03;13.60;90.60
3942;DHT22;1985;48.592;8.850;2023-10-08T02:04:32;13.50;91.00
3942;DHT22;1985;48.592;8.850;2023-10-08T02:06:59;13.30;91.30
3942;DHT22;1985;48.592;8.850;2023-10-08T02:09:25;13.20;91.80
3942;DHT22;1985;48.592;8.850;2023-10-08T02:11:52;13.00;92.10
3942;DHT22;1985;48.592;8.850;2023-10-08T02:14:20;12.90;92.50
3942;DHT22;1985;48.592;8.850;2023-10-08T02:16:49;12.80;92.60
3942;DHT22;1985;48.592;8.850;2023-10-08T02:19:17;12.80;92.90
3942;DHT22;1985;48.592;8.850;2023-10-08T02:21:44;12.80;93.20
3942;DHT22;1985;48.592;8.850;2023-10-08T02:24:13;12.80;93.20
3942;DHT22;1985;48.592;8.850;2023-10-08T02:26:39;12.80;93.50
3942;DHT22;1985;48.592;8.850;2023-10-08T02:29:05;12.80;95.30
3942;DHT22;1985;48.592;8.850;2023-10-08T02:31:38;12.80;93.90
3942;DHT22;1985;48.592;8.850;2023-10-08T02:34:05;12.80;93.70
3942;DHT22;1985;48.592;8.850;2023-10-08T02:36:34;12.80;93.30
3942;DHT22;1985;48.592;8.850;2023-10-08T02:39:02;12.60;93.30
3942;DHT22;1985;48.592;8.850;2023-10-08T02:41:32;12.40;94.10
3942;DHT22;1985;48.592;8.850;2023-10-08T02:43:57;12.30;94.80
3942;DHT22;1985;48.592;8.850;2023-10-08T02:46:25;12.30;94.90
3942;DHT22;1985;48.592;8.850;2023-10-08T02:48:52;12.20;95.20
3942;DHT22;1985;48.592;8.850;2023-10-08T02:51:18;12.30;95.10
3942;DHT22;1985;48.592;8.850;2023-10-08T02:53:46;12.20;95.10
3942;DHT22;1985;48.592;8.850;2023-10-08T02:56:12;12.20;95.00
3942;DHT22;1985;48.592;8.850;2023-10-08T02:58:42;12.10;95.60
3942;DHT22;1985;48.592;8.850;2023-10-08T03:01:13;12.10;95.30
3942;DHT22;1985;48.592;8.850;2023-10-08T03:03:40;12.20;95.70
3942;DHT22;1985;48.592;8.850;2023-10-08T03:06:07;12.30;95.50
3942;DHT22;1985;48.592;8.850;2023-10-08T03:08:37;12.40;96.00
3942;DHT22;1985;48.592;8.850;2023-10-08T03:11:05;12.50;97.30
3942;DHT22;1985;48.592;8.850;2023-10-08T03:13:32;12.50;97.00
3942;DHT22;1985;48.592;8.850;2023-10-08T03:15:57;12.70;96.70
3942;DHT22;1985;48.592;8.850;2023-10-08T03:18:27;12.70;95.30
3942;DHT22;1985;48.592;8.850;2023-10-08T03:21:02;12.80;95.30
3942;DHT22;1985;48.592;8.850;2023-10-08T03:23:30;12.80;94.20
3942;DHT22;1985;48.592;8.850;2023-10-08T03:26:02;12.70;94.10
3942;DHT22;1985;48.592;8.850;2023-10-08T03:28:49;12.70;93.60
3942;DHT22;1985;48.592;8.850;2023-10-08T03:31:23;12.70;94.80
3942;DHT22;1985;48.592;8.850;2023-10-08T03:34:08;12.80;95.40
3942;DHT22;1985;48.592;8.850;2023-10-08T03:36:38;12.90;93.50
3942;DHT22;1985;48.592;8.850;2023-10-08T03:39:10;12.90;92.80
3942;DHT22;1985;48.592;8.850;2023-10-08T03:41:42;12.90;93.50
3942;DHT22;1985;48.592;8.850;2023-10-08T03:44:17;12.80;95.50
3942;DHT22;1985;48.592;8.850;2023-10-08T03:46:43;12.90;95.70
3942;DHT22;1985;48.592;8.850;2023-10-08T03:49:12;13.00;96.10
3942;DHT22;1985;48.592;8.850;2023-10-08T03:51:42;13.10;96.20
3942;DHT22;1985;48.592;8.850;2023-10-08T03:54:08;13.10;96.30
3942;DHT22;1985;48.592;8.850;2023-10-08T03:56:45;13.10;95.70
3942;DHT22;1985;48.592;8.850;2023-10-08T03:59:14;13.10;96.00
3942;DHT22;1985;48.592;8.850;2023-10-08T04:01:46;13.10;95.30
3942;DHT22;1985;48.592;8.850;2023-10-08T04:04:14;13.10;94.00
3942;DHT22;1985;48.592;8.850;2023-10-08T04:06:41;13.10;96.00
3942;DHT22;1985;48.592;8.850;2023-10-08T04:09:15;13.10;96.00
3942;DHT22;1985;48.592;8.850;2023-10-08T04:11:43;13.00;96.70
3942;DHT22;1985;48.592;8.850;2023-10-08T04:14:25;13.10;95.30
3942;DHT22;1985;48.592;8.850;2023-10-08T04:16:51;13.00;95.80
3942;DHT22;1985;48.592;8.850;2023-10-08T04:19:19;13.00;94.60
3942;DHT22;1985;48.592;8.850;2023-10-08T04:21:45;13.00;96.00
3942;DHT22;1985;48.592;8.850;2023-10-08T04:24:25;13.00;95.80
3942;DHT22;1985;48.592;8.850;2023-10-08T04:26:57;13.00;96.60
3942;DHT22;1985;48.592;8.850;2023-10-08T04:29:23;13.00;96.30
3942;DHT22;1985;48.592;8.850;2023-10-08T04:31:49;13.00;96.50
3942;DHT22;1985;48.592;8.850;2023-10-08T04:34:26;13.10;96.00
3942;DHT22;1985;48.592;8.850;2023-10-08T04:36:53;13.10;96.10
3942;DHT22;1985;48.592;8.850;2023-10-08T04:39:26;13.20;95.50
3942;DHT22;1985;48.592;8.850;2023-10-08T04:41:58;13.20;95.40
3942;DHT22;1985;48.592;8.850;2023-10-08T04:44:24;13.20;95.30
3942;DHT22;1985;48.592;8.850;2023-10-08T04:46:51;13.10;94.30
3942;DHT22;1985;48.592;8.850;2023-10-08T04:49:18;13.10;94.50
3942;DHT22;1985;48.592;8.850;2023-10-08T04:52:01;13.10;95.60
3942;DHT22;1985;48.592;8.850;2023-10-08T04:54:34;13.10;95.90
3942;DHT22;1985;48.592;8.850;2023-10-08T04:57:06;13.10;95.80
3942;DHT22;1985;48.592;8.850;2023-10-08T04:59:32;13.10;95.90
3942;DHT22;1985;48.592;8.850;2023-10-08T05:02:03;13.10;95.90
3942;DHT22;1985;48.592;8.850;2023-10-08T05:04:44;13.10;95.50
3942;DHT22;1985;48.592;8.850;2023-10-08T05:07:12;13.10;94.10
3942;DHT22;1985;48.592;8.850;2023-10-08T05:10:07;13.00;93.40
3942;DHT22;1985;48.592;8.850;2023-10-08T05:12:33;12.90;93.20
3942;DHT22;1985;48.592;8.850;2023-10-08T05:15:16;12.90;95.50
3942;DHT22;1985;48.592;8.850;2023-10-08T05:17:44;12.90;96.30
3942;DHT22;1985;48.592;8.850;2023-10-08T05:20:20;12.90;96.80
3942;DHT22;1985;48.592;8.850;2023-10-08T05:23:13;13.00;97.00
3942;DHT22;1985;48.592;8.850;2023-10-08T05:25:55;13.10;96.90
3942;DHT22;1985;48.592;8.850;2023-10-08T05:28:30;13.10;97.20
3942;DHT22;1985;48.592;8.850;2023-10-08T05:31:07;13.20;97.10
3942;DHT22;1985;48.592;8.850;2023-10-08T05:33:39;13.10;97.80
3942;DHT22;1985;48.592;8.850;2023-10-08T05:36:23;13.20;97.40
3942;DHT22;1985;48.592;8.850;2023-10-08T05:39:14;13.30;97.10
3942;DHT22;1985;48.592;8.850;2023-10-08T05:41:55;13.20;97.50
3942;DHT22;1985;48.592;8.850;2023-10-08T05:44:41;13.20;97.80
3942;DHT22;1985;48.592;8.850;2023-10-08T05:47:26;13.10;97.90
3942;DHT22;1985;48.592;8.850;2023-10-08T05:49:58;13.10;98.00
3942;DHT22;1985;48.592;8.850;2023-10-08T05:52:42;13.10;98.00
3942;DHT22;1985;48.592;8.850;2023-10-08T05:55:20;13.20;97.30
3942;DHT22;1985;48.592;8.850;2023-10-08T05:57:53;13.20;97.20
3942;DHT22;1985;48.592;8.850;2023-10-08T06:00:41;13.20;97.50
3942;DHT22;1985;48.592;8.850;2023-10-08T06:03:17;13.30;97.10
3942;DHT22;1985;48.592;8.850;2023-10-08T06:05:59;13.30;97.70
3942;DHT22;1985;48.592;8.850;2023-10-08T06:08:40;13.30;98.20
3942;DHT22;1985;48.592;8.850;2023-10-08T06:11:39;13.30;98.20
3942;DHT22;1985;48.592;8.850;2023-10-08T06:14:21;13.40;98.10
3942;DHT22;1985;48.592;8.850;2023-10-08T06:17:06;13.40;98.30
3942;DHT22;1985;48.592;8.850;2023-10-08T06:20:00;13.50;98.50
3942;DHT22;1985;48.592;8.850;2023-10-08T06:22:27;13.50;98.90
3942;DHT22;1985;48.592;8.850;2023-10-08T06:24:53;13.50;98.90
3942;DHT22;1985;48.592;8.850;2023-10-08T06:27:38;13.60;99.00
3942;DHT22;1985;48.592;8.850;2023-10-08T06:30:05;13.60;98.90
3942;DHT22;1985;48.592;8.850;2023-10-08T06:32:31;13.70;98.00
3942;DHT22;1985;48.592;8.850;2023-10-08T06:34:57;13.80;96.40
3942;DHT22;1985;48.592;8.850;2023-10-08T06:37:22;13.60;95.30
3942;DHT22;1985;48.592;8.850;2023-10-08T06:39:48;13.60;95.10
3942;DHT22;1985;48.592;8.850;2023-10-08T06:42:14;13.60;96.20
3942;DHT22;1985;48.592;8.850;2023-10-08T06:44:41;13.50;95.30
3942;DHT22;1985;48.592;8.850;2023-10-08T06:47:12;13.60;95.70
3942;DHT22;1985;48.592;8.850;2023-10-08T06:49:42;13.60;95.60
3942;DHT22;1985;48.592;8.850;2023-10-08T06:52:08;13.70;96.50
3942;DHT22;1985;48.592;8.850;2023-10-08T06:54:36;13.80;97.30
3942;DHT22;1985;48.592;8.850;2023-10-08T06:57:02;13.90;97.70
3942;DHT22;1985;48.592;8.850;2023-10-08T06:59:28;14.10;98.00
3942;DHT22;1985;48.592;8.850;2023-10-08T07:01:57;14.20;98.00
3942;DHT22;1985;48.592;8.850;2023-10-08T07:04:24;14.10;96.30
3942;DHT22;1985;48.592;8.850;2023-10-08T07:06:50;14.10;97.80
3942;DHT22;1985;48.592;8.850;2023-10-08T07:09:16;14.10;97.70
3942;DHT22;1985;48.592;8.850;2023-10-08T07:11:54;14.10;98.30
3942;DHT22;1985;48.592;8.850;2023-10-08T07:14:25;14.20;98.70
3942;DHT22;1985;48.592;8.850;2023-10-08T07:16:58;14.30;99.10
3942;DHT22;1985;48.592;8.850;2023-10-08T07:19:25;14.50;98.40
3942;DHT22;1985;48.592;8.850;2023-10-08T07:21:59;14.70;97.60
3942;DHT22;1985;48.592;8.850;2023-10-08T07:24:29;14.80;96.30
3942;DHT22;1985;48.592;8.850;2023-10-08T07:26:56;15.00;95.60
3942;DHT22;1985;48.592;8.850;2023-10-08T07:29:22;15.10;95.50
3942;DHT22;1985;48.592;8.850;2023-10-08T07:31:48;15.10;95.00
3942;DHT22;1985;48.592;8.850;2023-10-08T07:34:18;15.00;94.00
3942;DHT22;1985;48.592;8.850;2023-10-08T07:36:51;15.00;94.00
3942;DHT22;1985;48.592;8.850;2023-10-08T07:39:18;15.00;93.80
3942;DHT22;1985;48.592;8.850;2023-10-08T07:41:56;15.10;94.20
3942;DHT22;1985;48.592;8.850;2023-10-08T07:44:25;15.00;94.30
3942;DHT22;1985;48.592;8.850;2023-10-08T07:46:54;15.00;95.20
3942;DHT22;1985;48.592;8.850;2023-10-08T07:49:25;15.00;95.50
3942;DHT22;1985;48.592;8.850;2023-10-08T07:51:52;15.20;95.90
3942;DHT22;1985;48.592;8.850;2023-10-08T07:54:19;15.50;96.10
3942;DHT22;1985;48.592;8.850;2023-10-08T07:56:46;15.70;96.20
3942;DHT22;1985;48.592;8.850;2023-10-08T07:59:13;16.00;96.00
3942;DHT22;1985;48.592;8.850;2023-10-08T08:01:41;16.10;95.80
3942;DHT22;1985;48.592;8.850;2023-10-08T08:04:16;16.30;95.50
3942;DHT22;1985;48.592;8.850;2023-10-08T08:06:50;16.50;95.00
3942;DHT22;1985;48.592;8.850;2023-10-08T08:09:19;16.60;94.60
3942;DHT22;1985;48.592;8.850;2023-10-08T08:11:46;16.60;94.10
3942;DHT22;1985;48.592;8.850;2023-10-08T08:14:13;16.70;93.70
3942;DHT22;1985;48.592;8.850;2023-10-08T08:16:44;16.70;94.20
3942;DHT22;1985;48.592;8.850;2023-10-08T08:19:14;16.70;94.40
3942;DHT22;1985;48.592;8.850;2023-10-08T08:21:44;16.60;95.00
3942;DHT22;1985;48.592;8.850;2023-10-08T08:24:13;16.60;95.20
3942;DHT22;1985;48.592;8.850;2023-10-08T08:26:39;16.60;95.40
3942;DHT22;1985;48.592;8.850;2023-10-08T08:29:06;16.60;95.50
3942;DHT22;1985;48.592;8.850;2023-10-08T08:31:35;16.50;95.60
3942;DHT22;1985;48.592;8.850;2023-10-08T08:34:02;16.60;96.10
3942;DHT22;1985;48.592;8.850;2023-10-08T08:36:34;16.60;96.40
3942;DHT22;1985;48.592;8.850;2023-10-08T08:39:03;16.60;96.20
3942;DHT22;1985;48.592;8.850;2023-10-08T08:41:30;16.70;97.00
3942;DHT22;1985;48.592;8.850;2023-10-08T08:43:55;16.80;96.70
3942;DHT22;1985;48.592;8.850;2023-10-08T08:48:54;17.40;96.40
3942;DHT22;1985;48.592;8.850;2023-10-08T08:51:22;17.50;94.60
3942;DHT22;1985;48.592;8.850;2023-10-08T08:53:49;17.70;95.50
3942;DHT22;1985;48.592;8.850;2023-10-08T08:56:15;17.90;95.30
3942;DHT22;1985;48.592;8.850;2023-10-08T08:58:42;18.20;95.00
3942;DHT22;1985;48.592;8.850;2023-10-08T09:01:12;18.30;94.80
3942;DHT22;1985;48.592;8.850;2023-10-08T09:03:39;18.40;94.80
3942;DHT22;1985;48.592;8.850;2023-10-08T09:06:05;18.60;94.40
3942;DHT22;1985;48.592;8.850;2023-10-08T09:08:38;18.90;94.20
3942;DHT22;1985;48.592;8.850;2023-10-08T09:11:08;19.20;93.50
3942;DHT22;1985;48.592;8.850;2023-10-08T09:13:34;19.40;93.30
3942;DHT22;1985;48.592;8.850;2023-10-08T09:16:21;19.60;92.70
3942;DHT22;1985;48.592;8.850;2023-10-08T09:18:48;19.90;92.60
3942;DHT22;1985;48.592;8.850;2023-10-08T09:21:16;20.00;91.90
3942;DHT22;1985;48.592;8.850;2023-10-08T09:23:48;20.20;91.60
3942;DHT22;1985;48.592;8.850;2023-10-08T09:26:17;20.40;91.40
3942;DHT22;1985;48.592;8.850;2023-10-08T09:28:47;20.50;91.20
3942;DHT22;1985;48.592;8.850;2023-10-08T09:31:14;20.60;90.30
3942;DHT22;1985;48.592;8.850;2023-10-08T09:33:40;20.70;90.90
3942;DHT22;1985;48.592;8.850;2023-10-08T09:36:09;20.80;90.50
3942;DHT22;1985;48.592;8.850;2023-10-08T09:38:37;21.00;91.60
3942;DHT22;1985;48.592;8.850;2023-10-08T09:41:03;21.20;91.70
3942;DHT22;1985;48.592;8.850;2023-10-08T09:43:29;21.40;90.90
3942;DHT22;1985;48.592;8.850;2023-10-08T09:46:20;21.50;90.30
3942;DHT22;1985;48.592;8.850;2023-10-08T09:48:52;21.70;90.10
3942;DHT22;1985;48.592;8.850;2023-10-08T09:51:20;21.90;89.30
3942;DHT22;1985;48.592;8.850;2023-10-08T09:54:33;22.20;89.20
3942;DHT22;1985;48.592;8.850;2023-10-08T09:56:51;22.50;88.90
3942;DHT22;1985;48.592;8.850;2023-10-08T09:59:18;22.90;86.70
3942;DHT22;1985;48.592;8.850;2023-10-08T10:01:45;23.20;86.60
3942;DHT22;1985;48.592;8.850;2023-10-08T10:04:21;23.20;82.80
3942;DHT22;1985;48.592;8.850;2023-10-08T10:06:49;23.30;86.00
3942;DHT22;1985;48.592;8.850;2023-10-08T10:09:23;23.10;82.90
3942;DHT22;1985;48.592;8.850;2023-10-08T10:11:50;23.00;83.20
3942;DHT22;1985;48.592;8.850;2023-10-08T10:14:17;23.00;82.80
3942;DHT22;1985;48.592;8.850;2023-10-08T10:16:43;23.00;82.70
3942;DHT22;1985;48.592;8.850;2023-10-08T10:19:17;23.30;82.20
3942;DHT22;1985;48.592;8.850;2023-10-08T10:21:46;23.60;81.30
3942;DHT22;1985;48.592;8.850;2023-10-08T10:24:35;24.10;81.00
3942;DHT22;1985;48.592;8.850;2023-10-08T10:27:15;24.60;80.20
3942;DHT22;1985;48.592;8.850;2023-10-08T10:29:44;25.10;78.70
3942;DHT22;1985;48.592;8.850;2023-10-08T10:32:13;25.60;75.10
3942;DHT22;1985;48.592;8.850;2023-10-08T10:34:45;26.00;73.00
3942;DHT22;1985;48.592;8.850;2023-10-08T10:37:19;26.40;72.00
3942;DHT22;1985;48.592;8.850;2023-10-08T10:39:55;26.10;69.90
3942;DHT22;1985;48.592;8.850;2023-10-08T10:42:24;26.00;70.50
3942;DHT22;1985;48.592;8.850;2023-10-08T10:44:52;26.00;70.70
3942;DHT22;1985;48.592;8.850;2023-10-08T10:47:19;25.90;70.40
3942;DHT22;1985;48.592;8.850;2023-10-08T10:49:52;26.00;70.80
3942;DHT22;1985;48.592;8.850;2023-10-08T10:52:23;26.40;68.60
3942;DHT22;1985;48.592;8.850;2023-10-08T10:57:50;27.30;63.50
3942;DHT22;1985;48.592;8.850;2023-10-08T11:00:43;26.80;62.50
3942;DHT22;1985;48.592;8.850;2023-10-08T11:03:10;26.20;63.90
3942;DHT22;1985;48.592;8.850;2023-10-08T11:05:42;26.10;64.40
3942;DHT22;1985;48.592;8.850;2023-10-08T11:08:14;26.20;66.40
3942;DHT22;1985;48.592;8.850;2023-10-08T11:10:42;26.30;64.20
3942;DHT22;1985;48.592;8.850;2023-10-08T11:13:23;26.30;64.30
3942;DHT22;1985;48.592;8.850;2023-10-08T11:15:54;26.50;61.50
3942;DHT22;1985;48.592;8.850;2023-10-08T11:18:24;26.70;62.20
3942;DHT22;1985;48.592;8.850;2023-10-08T11:20:52;26.50;58.10
3942;DHT22;1985;48.592;8.850;2023-10-08T11:23:34;26.20;60.00
3942;DHT22;1985;48.592;8.850;2023-10-08T11:26:02;26.30;59.70
3942;DHT22;1985;48.592;8.850;2023-10-08T11:28:36;26.80;57.20
3942;DHT22;1985;48.592;8.850;2023-10-08T11:31:10;27.50;56.10
3942;DHT22;1985;48.592;8.850;2023-10-08T11:33:40;27.80;53.70
3942;DHT22;1985;48.592;8.850;2023-10-08T11:36:08;27.50;52.80
3942;DHT22;1985;48.592;8.850;2023-10-08T11:38:56;27.00;52.20
3942;DHT22;1985;48.592;8.850;2023-10-08T11:41:31;26.90;52.20
3942;DHT22;1985;48.592;8.850;2023-10-08T11:44:09;26.70;52.70
3942;DHT22;1985;48.592;8.850;2023-10-08T11:46:38;26.50;55.00
3942;DHT22;1985;48.592;8.850;2023-10-08T11:49:08;26.20;54.40
3942;DHT22;1985;48.592;8.850;2023-10-08T11:51:44;26.20;56.50
3942;DHT22;1985;48.592;8.850;2023-10-08T11:54:09;26.20;56.60
3942;DHT22;1985;48.592;8.850;2023-10-08T11:56:39;26.10;56.80
3942;DHT22;1985;48.592;8.850;2023-10-08T11:59:05;25.90;57.50
3942;DHT22;1985;48.592;8.850;2023-10-08T12:01:37;26.30;56.70
3942;DHT22;1985;48.592;8.850;2023-10-08T12:04:04;26.50;57.40
3942;DHT22;1985;48.592;8.850;2023-10-08T12:06:30;26.80;58.30
3942;DHT22;1985;48.592;8.850;2023-10-08T12:08:56;27.10;57.30
3942;DHT22;1985;48.592;8.850;2023-10-08T12:11:27;27.40;56.90
3942;DHT22;1985;48.592;8.850;2023-10-08T12:13:59;27.60;57.50
3942;DHT22;1985;48.592;8.850;2023-10-08T12:16:26;27.80;58.10
3942;DHT22;1985;48.592;8.850;2023-10-08T12:18:55;27.90;57.50
3942;DHT22;1985;48.592;8.850;2023-10-08T12:21:30;27.90;56.00
3942;DHT22;1985;48.592;8.850;2023-10-08T12:24:00;27.90;55.90
3942;DHT22;1985;48.592;8.850;2023-10-08T12:26:30;27.90;55.60
3942;DHT22;1985;48.592;8.850;2023-10-08T12:28:57;28.10;54.80
3942;DHT22;1985;48.592;8.850;2023-10-08T12:31:23;28.10;54.70
3942;DHT22;1985;48.592;8.850;2023-10-08T12:33:50;28.00;54.30
3942;DHT22;1985;48.592;8.850;2023-10-08T12:36:28;28.10;54.50
3942;DHT22;1985;48.592;8.850;2023-10-08T12:38:58;28.10;53.40
3942;DHT22;1985;48.592;8.850;2023-10-08T12:41:25;28.10;53.80
3942;DHT22;1985;48.592;8.850;2023-10-08T12:43:54;28.10;53.00
3942;DHT22;1985;48.592;8.850;2023-10-08T12:46:20;28.20;54.00
3942;DHT22;1985;48.592;8.850;2023-10-08T12:48:50;28.40;54.20
3942;DHT22;1985;48.592;8.850;2023-10-08T12:51:24;28.50;53.20
3942;DHT22;1985;48.592;8.850;2023-10-08T12:53:51;28.60;53.10
3942;DHT22;1985;48.592;8.850;2023-10-08T12:56:24;28.60;52.00
3942;DHT22;1985;48.592;8.850;2023-10-08T12:58:58;28.70;52.20
3942;DHT22;1985;48.592;8.850;2023-10-08T13:01:23;28.90;51.60
3942;DHT22;1985;48.592;8.850;2023-10-08T13:03:54;28.90;51.80
3942;DHT22;1985;48.592;8.850;2023-10-08T13:06:25;28.90;52.40
3942;DHT22;1985;48.592;8.850;2023-10-08T13:09:03;28.90;51.70
3942;DHT22;1985;48.592;8.850;2023-10-08T13:11:38;28.90;51.20
3942;DHT22;1985;48.592;8.850;2023-10-08T13:14:05;28.90;49.70
3942;DHT22;1985;48.592;8.850;2023-10-08T13:16:31;29.00;48.60
3942;DHT22;1985;48.592;8.850;2023-10-08T13:18:58;29.10;50.00
3942;DHT22;1985;48.592;8.850;2023-10-08T13:21:27;29.20;50.90
3942;DHT22;1985;48.592;8.850;2023-10-08T13:23:54;29.20;50.70
3942;DHT22;1985;48.592;8.850;2023-10-08T13:26:24;29.30;49.70
3942;DHT22;1985;48.592;8.850;2023-10-08T13:28:52;29.30;50.30
3942;DHT22;1985;48.592;8.850;2023-10-08T13:31:17;29.30;50.20
3942;DHT22;1985;48.592;8.850;2023-10-08T13:33:44;29.40;50.00
3942;DHT22;1985;48.592;8.850;2023-10-08T13:36:14;29.40;49.10
3942;DHT22;1985;48.592;8.850;2023-10-08T13:38:41;29.40;49.10
3942;DHT22;1985;48.592;8.850;2023-10-08T13:41:09;29.40;49.00
3942;DHT22;1985;48.592;8.850;2023-10-08T13:43:42;29.40;48.30
3942;DHT22;1985;48.592;8.850;2023-10-08T13:46:12;29.40;49.20
3942;DHT22;1985;48.592;8.850;2023-10-08T13:48:39;29.40;48.60
3942;DHT22;1985;48.592;8.850;2023-10-08T13:51:06;29.40;48.80
3942;DHT22;1985;48.592;8.850;2023-10-08T13:53:42;29.40;48.50
3942;DHT22;1985;48.592;8.850;2023-10-08T13:56:11;29.40;48.50
3942;DHT22;1985;48.592;8.850;2023-10-08T13:58:38;29.30;49.70
3942;DHT22;1985;48.592;8.850;2023-10-08T14:01:06;29.20;47.80
3942;DHT22;1985;48.592;8.850;2023-10-08T14:03:48;29.10;48.20
3942;DHT22;1985;48.592;8.850;2023-10-08T14:06:14;29.00;48.40
3942;DHT22;1985;48.592;8.850;2023-10-08T14:08:41;29.00;47.80
3942;DHT22;1985;48.592;8.850;2023-10-08T14:11:10;29.00;48.10
3942;DHT22;1985;48.592;8.850;2023-10-08T14:13:38;29.10;48.70
3942;DHT22;1985;48.592;8.850;2023-10-08T14:16:08;29.10;47.40
3942;DHT22;1985;48.592;8.850;2023-10-08T14:18:36;29.10;47.40
3942;DHT22;1985;48.592;8.850;2023-10-08T14:21:08;29.10;47.30
3942;DHT22;1985;48.592;8.850;2023-10-08T14:23:39;29.10;47.30
3942;DHT22;1985;48.592;8.850;2023-10-08T14:26:08;29.10;47.10
3942;DHT22;1985;48.592;8.850;2023-10-08T14:28:37;29.00;48.10
3942;DHT22;1985;48.592;8.850;2023-10-08T14:31:09;29.00;48.10
3942;DHT22;1985;48.592;8.850;2023-10-08T14:33:41;29.00;46.80
3942;DHT22;1985;48.592;8.850;2023-10-08T14:36:09;28.90;46.50
3942;DHT22;1985;48.592;8.850;2023-10-08T14:38:54;28.90;45.80
3942;DHT22;1985;48.592;8.850;2023-10-08T14:41:38;28.80;44.90
3942;DHT22;1985;48.592;8.850;2023-10-08T14:44:22;28.60;43.50
3942;DHT22;1985;48.592;8.850;2023-10-08T14:46:50;28.40;44.60
3942;DHT22;1985;48.592;8.850;2023-10-08T14:49:16;28.30;44.60
3942;DHT22;1985;48.592;8.850;2023-10-08T14:51:42;28.20;45.10
3942;DHT22;1985;48.592;8.850;2023-10-08T14:54:08;28.10;44.50
3942;DHT22;1985;48.592;8.850;2023-10-08T14:56:35;28.10;45.30
3942;DHT22;1985;48.592;8.850;2023-10-08T14:59:02;28.00;45.90
3942;DHT22;1985;48.592;8.850;2023-10-08T15:01:29;28.00;45.40
3942;DHT22;1985;48.592;8.850;2023-10-08T15:03:59;28.00;45.10
3942;DHT22;1985;48.592;8.850;2023-10-08T15:06:25;27.90;45.00
3942;DHT22;1985;48.592;8.850;2023-10-08T15:08:51;27.80;45.40
3942;DHT22;1985;48.592;8.850;2023-10-08T15:11:18;27.70;46.90
3942;DHT22;1985;48.592;8.850;2023-10-08T15:13:43;27.50;46.70
3942;DHT22;1985;48.592;8.850;2023-10-08T15:16:12;27.40;46.60
3942;DHT22;1985;48.592;8.850;2023-10-08T15:18:39;27.10;47.50
3942;DHT22;1985;48.592;8.850;2023-10-08T15:21:08;26.90;47.70
3942;DHT22;1985;48.592;8.850;2023-10-08T15:23:34;26.70;48.30
3942;DHT22;1985;48.592;8.850;2023-10-08T15:26:01;26.60;48.90
3942;DHT22;1985;48.592;8.850;2023-10-08T15:28:27;26.30;49.60
3942;DHT22;1985;48.592;8.850;2023-10-08T15:30:52;26.10;49.50
3942;DHT22;1985;48.592;8.850;2023-10-08T15:33:18;26.00;49.80
3942;DHT22;1985;48.592;8.850;2023-10-08T15:35:44;26.00;50.60
3942;DHT22;1985;48.592;8.850;2023-10-08T15:38:09;26.00;50.50
3942;DHT22;1985;48.592;8.850;2023-10-08T15:40:36;25.90;49.80
3942;DHT22;1985;48.592;8.850;2023-10-08T15:43:01;25.80;49.70
3942;DHT22;1985;48.592;8.850;2023-10-08T15:45:27;25.70;50.00
3942;DHT22;1985;48.592;8.850;2023-10-08T15:47:54;25.50;51.10
3942;DHT22;1985;48.592;8.850;2023-10-08T15:50:20;25.40;52.00
3942;DHT22;1985;48.592;8.850;2023-10-08T15:52:47;25.10;51.70
3942;DHT22;1985;48.592;8.850;2023-10-08T15:55:13;24.90;52.10
3942;DHT22;1985;48.592;8.850;2023-10-08T15:57:39;24.90;52.70
3942;DHT22;1985;48.592;8.850;2023-10-08T16:00:07;24.70;53.00
3942;DHT22;1985;48.592;8.850;2023-10-08T16:02:34;24.70;53.20
3942;DHT22;1985;48.592;8.850;2023-10-08T16:05:00;24.50;53.30
3942;DHT22;1985;48.592;8.850;2023-10-08T16:07:25;24.50;54.00
3942;DHT22;1985;48.592;8.850;2023-10-08T16:09:51;24.40;55.30
3942;DHT22;1985;48.592;8.850;2023-10-08T16:12:17;24.20;55.90
3942;DHT22;1985;48.592;8.850;2023-10-08T16:14:43;24.20;56.50
3942;DHT22;1985;48.592;8.850;2023-10-08T16:17:10;24.10;57.10
3942;DHT22;1985;48.592;8.850;2023-10-08T16:19:39;24.10;57.40
3942;DHT22;1985;48.592;8.850;2023-10-08T16:22:06;24.00;57.00
3942;DHT22;1985;48.592;8.850;2023-10-08T16:24:32;23.90;56.40
3942;DHT22;1985;48.592;8.850;2023-10-08T16:26:58;23.80;57.20
3942;DHT22;1985;48.592;8.850;2023-10-08T16:29:23;23.70;57.80